sensor_id;sensor_type;location;lat;lon;timestamp;temperature;humidity
34008;DHT22;41085;51.594;7.138;2022-09-03T00:03:57;22.50;57.90
34008;DHT22;41085;51.594;7.138;2022-09-03T00:12:13;22.50;58.00
34008;DHT22;41085;51.594;7.138;2022-09-03T00:16:17;22.60;58.00
34008;DHT22;41085;51.594;7.138;2022-09-03T00:20:26;22.60;58.10
34008;DHT22;41085;51.594;7.138;2022-09-03T00:24:32;22.50;57.40
34008;DHT22;41085;51.594;7.138;2022-09-03T00:28:41;22.40;57.00
34008;DHT22;41085;51.594;7.138;2022-09-03T00:32:52;22.30;57.10
34008;DHT22;41085;51.594;7.138;2022-09-03T00:36:55;22.20;57.30
34008;DHT22;41085;51.594;7.138;2022-09-03T00:54:16;22.10;58.40
34008;DHT22;41085;51.594;7.138;2022-09-03T00:58:37;22.10;57.10
34008;DHT22;41085;51.594;7.138;2022-09-03T01:07:08;21.80;57.70
34008;DHT22;41085;51.594;7.138;2022-09-03T01:11:21;21.70;57.60
34008;DHT22;41085;51.594;7.138;2022-09-03T01:28:22;21.60;57.80
34008;DHT22;41085;51.594;7.138;2022-09-03T01:37:07;21.50;58.10
34008;DHT22;41085;51.594;7.138;2022-09-03T01:45:52;21.50;58.30
34008;DHT22;41085;51.594;7.138;2022-09-03T01:50:03;21.30;58.50
34008;DHT22;41085;51.594;7.138;2022-09-03T01:54:40;21.40;58.50
34008;DHT22;41085;51.594;7.138;2022-09-03T01:58:53;21.30;58.50
34008;DHT22;41085;51.594;7.138;2022-09-03T02:03:05;21.30;58.50
34008;DHT22;41085;51.594;7.138;2022-09-03T02:07:06;21.40;58.40
34008;DHT22;41085;51.594;7.138;2022-09-03T02:11:08;21.20;58.50
34008;DHT22;41085;51.594;7.138;2022-09-03T02:15:13;21.20;58.60
34008;DHT22;41085;51.594;7.138;2022-09-03T02:19:15;21.30;58.60
34008;DHT22;41085;51.594;7.138;2022-09-03T02:23:17;21.20;58.60
34008;DHT22;41085;51.594;7.138;2022-09-03T02:27:18;22.10;59.30
34008;DHT22;41085;51.594;7.138;2022-09-03T02:31:19;21.20;58.80
34008;DHT22;41085;51.594;7.138;2022-09-03T02:35:20;21.20;58.80
34008;DHT22;41085;51.594;7.138;2022-09-03T02:39:20;21.20;58.90
34008;DHT22;41085;51.594;7.138;2022-09-03T02:43:33;21.20;58.70
34008;DHT22;41085;51.594;7.138;2022-09-03T02:47:38;21.10;58.80
34008;DHT22;41085;51.594;7.138;2022-09-03T02:51:41;21.10;58.90
34008;DHT22;41085;51.594;7.138;2022-09-03T02:55:42;21.10;59.40
34008;DHT22;41085;51.594;7.138;2022-09-03T02:59:43;21.10;58.90
34008;DHT22;41085;51.594;7.138;2022-09-03T03:03:44;21.00;59.00
34008;DHT22;41085;51.594;7.138;2022-09-03T03:07:45;21.00;59.10
34008;DHT22;41085;51.594;7.138;2022-09-03T03:11:46;21.00;59.00
34008;DHT22;41085;51.594;7.138;2022-09-03T03:15:49;20.90;59.20
34008;DHT22;41085;51.594;7.138;2022-09-03T03:19:50;20.80;59.10
34008;DHT22;41085;51.594;7.138;2022-09-03T03:23:51;20.80;59.10
34008;DHT22;41085;51.594;7.138;2022-09-03T03:27:54;20.90;59.30
34008;DHT22;41085;51.594;7.138;2022-09-03T03:31:56;20.80;59.30
34008;DHT22;41085;51.594;7.138;2022-09-03T03:35:57;20.80;59.30
34008;DHT22;41085;51.594;7.138;2022-09-03T03:39:58;20.90;59.50
34008;DHT22;41085;51.594;7.138;2022-09-03T03:44:01;21.00;59.30
34008;DHT22;41085;51.594;7.138;2022-09-03T03:48:02;20.80;59.40
34008;DHT22;41085;51.594;7.138;2022-09-03T03:52:03;20.80;59.40
34008;DHT22;41085;51.594;7.138;2022-09-03T03:56:06;20.50;59.20
34008;DHT22;41085;51.594;7.138;2022-09-03T04:00:09;20.70;59.40
34008;DHT22;41085;51.594;7.138;2022-09-03T04:04:09;20.60;59.50
34008;DHT22;41085;51.594;7.138;2022-09-03T04:08:10;20.70;59.60
34008;DHT22;41085;51.594;7.138;2022-09-03T04:12:12;20.60;59.60
34008;DHT22;41085;51.594;7.138;2022-09-03T04:16:21;20.90;59.70
34008;DHT22;41085;51.594;7.138;2022-09-03T04:20:22;20.60;59.50
34008;DHT22;41085;51.594;7.138;2022-09-03T04:24:22;20.60;59.80
34008;DHT22;41085;51.594;7.138;2022-09-03T04:28:23;20.60;59.80
34008;DHT22;41085;51.594;7.138;2022-09-03T04:32:24;20.50;59.80
34008;DHT22;41085;51.594;7.138;2022-09-03T04:36:43;20.60;59.80
34008;DHT22;41085;51.594;7.138;2022-09-03T04:40:51;20.50;59.70
34008;DHT22;41085;51.594;7.138;2022-09-03T04:44:51;20.70;59.80
34008;DHT22;41085;51.594;7.138;2022-09-03T04:48:54;20.50;59.70
34008;DHT22;41085;51.594;7.138;2022-09-03T04:52:58;20.60;59.90
34008;DHT22;41085;51.594;7.138;2022-09-03T04:56:59;20.10;59.50
34008;DHT22;41085;51.594;7.138;2022-09-03T05:01:07;20.50;59.90
34008;DHT22;41085;51.594;7.138;2022-09-03T05:05:08;20.50;60.10
34008;DHT22;41085;51.594;7.138;2022-09-03T05:09:08;20.50;60.30
34008;DHT22;41085;51.594;7.138;2022-09-03T05:13:09;20.80;60.30
34008;DHT22;41085;51.594;7.138;2022-09-03T05:17:09;21.10;60.30
34008;DHT22;41085;51.594;7.138;2022-09-03T05:21:12;22.30;60.80
34008;DHT22;41085;51.594;7.138;2022-09-03T05:25:13;21.50;60.20
34008;DHT22;41085;51.594;7.138;2022-09-03T05:29:14;21.40;60.10
34008;DHT22;41085;51.594;7.138;2022-09-03T05:33:15;21.50;60.20
34008;DHT22;41085;51.594;7.138;2022-09-03T05:37:15;21.50;60.20
34008;DHT22;41085;51.594;7.138;2022-09-03T05:41:19;21.60;60.30
34008;DHT22;41085;51.594;7.138;2022-09-03T05:45:21;21.70;60.30
34008;DHT22;41085;51.594;7.138;2022-09-03T05:49:22;21.70;60.60
34008;DHT22;41085;51.594;7.138;2022-09-03T05:53:23;21.80;60.60
34008;DHT22;41085;51.594;7.138;2022-09-03T05:57:23;21.80;60.80
34008;DHT22;41085;51.594;7.138;2022-09-03T06:01:29;21.30;60.40
34008;DHT22;41085;51.594;7.138;2022-09-03T06:05:30;21.80;60.50
34008;DHT22;41085;51.594;7.138;2022-09-03T06:09:31;21.90;60.70
34008;DHT22;41085;51.594;7.138;2022-09-03T06:13:32;21.90;60.70
34008;DHT22;41085;51.594;7.138;2022-09-03T06:17:33;22.00;60.80
34008;DHT22;41085;51.594;7.138;2022-09-03T06:21:34;22.00;60.60
34008;DHT22;41085;51.594;7.138;2022-09-03T06:25:35;22.00;60.90
34008;DHT22;41085;51.594;7.138;2022-09-03T06:29:36;22.00;61.10
34008;DHT22;41085;51.594;7.138;2022-09-03T06:33:39;22.00;60.90
34008;DHT22;41085;51.594;7.138;2022-09-03T06:37:40;22.00;60.90
34008;DHT22;41085;51.594;7.138;2022-09-03T06:41:41;22.10;60.70
34008;DHT22;41085;51.594;7.138;2022-09-03T06:45:42;22.10;59.10
34008;DHT22;41085;51.594;7.138;2022-09-03T06:49:42;21.80;59.50
34008;DHT22;41085;51.594;7.138;2022-09-03T06:53:46;21.90;59.70
34008;DHT22;41085;51.594;7.138;2022-09-03T06:57:47;21.90;60.00
34008;DHT22;41085;51.594;7.138;2022-09-03T07:01:48;22.00;60.10
34008;DHT22;41085;51.594;7.138;2022-09-03T07:05:49;22.10;60.10
34008;DHT22;41085;51.594;7.138;2022-09-03T07:09:49;22.10;59.90
34008;DHT22;41085;51.594;7.138;2022-09-03T07:13:51;22.10;60.00
34008;DHT22;41085;51.594;7.138;2022-09-03T07:17:52;22.10;60.10
34008;DHT22;41085;51.594;7.138;2022-09-03T07:21:53;22.10;60.20
34008;DHT22;41085;51.594;7.138;2022-09-03T07:26:14;22.20;60.20
34008;DHT22;41085;51.594;7.138;2022-09-03T07:36:16;23.10;60.50
34008;DHT22;41085;51.594;7.138;2022-09-03T07:45:36;22.60;60.80
34008;DHT22;41085;51.594;7.138;2022-09-03T07:50:09;22.70;62.30
34008;DHT22;41085;51.594;7.138;2022-09-03T07:54:25;22.40;60.40
34008;DHT22;41085;51.594;7.138;2022-09-03T07:58:46;22.90;60.60
34008;DHT22;41085;51.594;7.138;2022-09-03T08:02:53;23.00;67.60
34008;DHT22;41085;51.594;7.138;2022-09-03T08:06:54;22.50;61.10
34008;DHT22;41085;51.594;7.138;2022-09-03T08:11:06;22.50;60.80
34008;DHT22;41085;51.594;7.138;2022-09-03T08:15:09;22.20;60.70
34008;DHT22;41085;51.594;7.138;2022-09-03T08:19:10;22.60;62.30
34008;DHT22;41085;51.594;7.138;2022-09-03T08:23:12;22.50;61.80
34008;DHT22;41085;51.594;7.138;2022-09-03T08:27:14;22.40;61.70
34008;DHT22;41085;51.594;7.138;2022-09-03T08:31:16;23.00;63.50
34008;DHT22;41085;51.594;7.138;2022-09-03T08:35:16;21.10;60.90
34008;DHT22;41085;51.594;7.138;2022-09-03T08:39:17;23.20;62.30
34008;DHT22;41085;51.594;7.138;2022-09-03T08:43:18;23.90;65.00
34008;DHT22;41085;51.594;7.138;2022-09-03T08:47:30;23.40;67.20
34008;DHT22;41085;51.594;7.138;2022-09-03T08:51:46;25.90;66.30
34008;DHT22;41085;51.594;7.138;2022-09-03T09:00:21;21.70;60.60
34008;DHT22;41085;51.594;7.138;2022-09-03T09:17:44;22.20;63.80
34008;DHT22;41085;51.594;7.138;2022-09-03T09:21:57;22.60;61.20
34008;DHT22;41085;51.594;7.138;2022-09-03T09:26:03;20.80;60.60
34008;DHT22;41085;51.594;7.138;2022-09-03T09:30:06;21.00;60.90
34008;DHT22;41085;51.594;7.138;2022-09-03T09:34:07;22.70;62.90
34008;DHT22;41085;51.594;7.138;2022-09-03T09:38:09;22.80;62.60
34008;DHT22;41085;51.594;7.138;2022-09-03T09:42:11;22.80;61.70
34008;DHT22;41085;51.594;7.138;2022-09-03T09:46:14;22.80;61.90
34008;DHT22;41085;51.594;7.138;2022-09-03T09:50:19;22.80;61.50
34008;DHT22;41085;51.594;7.138;2022-09-03T09:54:25;22.80;64.80
34008;DHT22;41085;51.594;7.138;2022-09-03T09:58:28;22.80;61.70
34008;DHT22;41085;51.594;7.138;2022-09-03T10:02:33;22.80;61.70
34008;DHT22;41085;51.594;7.138;2022-09-03T10:06:34;24.30;65.70
34008;DHT22;41085;51.594;7.138;2022-09-03T12:18:27;23.70;60.80
34008;DHT22;41085;51.594;7.138;2022-09-03T12:24:15;23.30;60.50
34008;DHT22;41085;51.594;7.138;2022-09-03T12:28:19;23.70;60.70
34008;DHT22;41085;51.594;7.138;2022-09-03T12:33:39;23.30;60.40
34008;DHT22;41085;51.594;7.138;2022-09-03T12:53:32;23.30;60.40
34008;DHT22;41085;51.594;7.138;2022-09-03T13:04:01;23.30;60.80
34008;DHT22;41085;51.594;7.138;2022-09-03T13:14:19;23.30;60.30
34008;DHT22;41085;51.594;7.138;2022-09-03T13:29:28;21.00;59.30
34008;DHT22;41085;51.594;7.138;2022-09-03T19:26:01;23.60;64.00
34008;DHT22;41085;51.594;7.138;2022-09-03T19:31:08;23.60;64.60
34008;DHT22;41085;51.594;7.138;2022-09-03T19:35:19;23.60;64.30
34008;DHT22;41085;51.594;7.138;2022-09-03T19:53:35;23.60;64.60
34008;DHT22;41085;51.594;7.138;2022-09-03T19:57:57;23.60;64.70
34008;DHT22;41085;51.594;7.138;2022-09-03T20:02:19;23.60;64.90
34008;DHT22;41085;51.594;7.138;2022-09-03T20:06:38;23.60;64.90
34008;DHT22;41085;51.594;7.138;2022-09-03T20:10:58;23.60;65.10
34008;DHT22;41085;51.594;7.138;2022-09-03T20:15:03;23.60;65.20
34008;DHT22;41085;51.594;7.138;2022-09-03T20:23:24;23.60;65.20
34008;DHT22;41085;51.594;7.138;2022-09-03T20:27:45;23.60;65.30
34008;DHT22;41085;51.594;7.138;2022-09-03T20:40:26;23.60;65.60
34008;DHT22;41085;51.594;7.138;2022-09-03T20:48:50;23.60;65.70
34008;DHT22;41085;51.594;7.138;2022-09-03T20:57:48;23.60;65.80
34008;DHT22;41085;51.594;7.138;2022-09-03T21:02:15;23.60;65.80
34008;DHT22;41085;51.594;7.138;2022-09-03T21:06:54;23.60;66.00
34008;DHT22;41085;51.594;7.138;2022-09-03T21:11:07;23.60;66.10
34008;DHT22;41085;51.594;7.138;2022-09-03T21:19:52;23.60;66.00
34008;DHT22;41085;51.594;7.138;2022-09-03T21:28:40;23.60;66.20
34008;DHT22;41085;51.594;7.138;2022-09-03T21:33:05;23.60;66.30
34008;DHT22;41085;51.594;7.138;2022-09-03T21:37:10;23.60;66.20
34008;DHT22;41085;51.594;7.138;2022-09-03T21:45:41;23.60;66.20
34008;DHT22;41085;51.594;7.138;2022-09-03T21:54:01;23.60;66.00
34008;DHT22;41085;51.594;7.138;2022-09-03T21:58:43;23.60;66.00
34008;DHT22;41085;51.594;7.138;2022-09-03T22:02:49;23.60;66.80
34008;DHT22;41085;51.594;7.138;2022-09-03T22:11:26;23.50;66.10
34008;DHT22;41085;51.594;7.138;2022-09-03T22:15:28;23.60;66.10
34008;DHT22;41085;51.594;7.138;2022-09-03T22:19:32;23.60;66.20
34008;DHT22;41085;51.594;7.138;2022-09-03T22:24:03;23.40;66.20
34008;DHT22;41085;51.594;7.138;2022-09-03T22:28:21;23.60;66.20
34008;DHT22;41085;51.594;7.138;2022-09-03T22:37:01;23.60;66.40
34008;DHT22;41085;51.594;7.138;2022-09-03T22:45:46;23.60;66.20
34008;DHT22;41085;51.594;7.138;2022-09-03T22:50:50;23.60;66.20
34008;DHT22;41085;51.594;7.138;2022-09-03T22:55:19;23.60;66.40
34008;DHT22;41085;51.594;7.138;2022-09-03T22:59:29;23.60;66.20
34008;DHT22;41085;51.594;7.138;2022-09-03T23:03:49;23.50;66.90
34008;DHT22;41085;51.594;7.138;2022-09-03T23:07:58;23.60;66.20
34008;DHT22;41085;51.594;7.138;2022-09-03T23:12:07;23.40;66.10
34008;DHT22;41085;51.594;7.138;2022-09-03T23:16:28;23.60;66.40
34008;DHT22;41085;51.594;7.138;2022-09-03T23:20:32;23.60;66.70
34008;DHT22;41085;51.594;7.138;2022-09-03T23:24:41;23.60;66.20
34008;DHT22;41085;51.594;7.138;2022-09-03T23:29:16;23.60;66.20
34008;DHT22;41085;51.594;7.138;2022-09-03T23:33:15;23.60;66.20
34008;DHT22;41085;51.594;7.138;2022-09-03T23:41:42;23.60;66.10
34008;DHT22;41085;51.594;7.138;2022-09-03T23:46:08;23.50;66.40
34008;DHT22;41085;51.594;7.138;2022-09-03T23:50:25;23.60;66.20
34008;DHT22;41085;51.594;7.138;2022-09-03T23:55:21;23.60;66.30
34008;DHT22;41085;51.594;7.138;2022-09-03T23:59:27;23.60;66.20
